aviador You're here:

K2J9 Decoded Metar

in
Report Time2018-07-23 00:15:00
UTC Time2018-07-23 00:21:15
Flight Rules vfr VFR
WindCalm
Visibility9999 m
Phenomena:N/A
Clouds:N/A
Expected CloudBase > 1,200 ft AGL from Temp-Dew spread
CeilingNone
Temp26°C
Dew Point23°C (84% RH)
QNH1008 hPa
Raw Report
METAR K2J9 230015Z AUTO 00000KT 10SM CLR 26/23 A2978 RMK AO2 LTG DSNT
E AND SE=

Extra information for K2J9:More info

Social comments